sensor_id;sensor_type;location;lat;lon;timestamp;temperature;humidity
66373;SHT30;53168;51.146;17.120;2024-03-17T00:00:16;6.41;70.07
66373;SHT30;53168;51.146;17.120;2024-03-17T00:03:13;6.37;70.10
66373;SHT30;53168;51.146;17.120;2024-03-17T00:05:48;6.33;70.10
66373;SHT30;53168;51.146;17.120;2024-03-17T00:08:30;6.28;70.20
66373;SHT30;53168;51.146;17.120;2024-03-17T00:11:05;6.26;70.22
66373;SHT30;53168;51.146;17.120;2024-03-17T00:13:42;6.24;70.19
66373;SHT30;53168;51.146;17.120;2024-03-17T00:16:18;6.20;70.26
66373;SHT30;53168;51.146;17.120;2024-03-17T00:18:54;6.18;70.24
66373;SHT30;53168;51.146;17.120;2024-03-17T00:21:29;6.14;70.22
66373;SHT30;53168;51.146;17.120;2024-03-17T00:24:04;6.08;70.24
66373;SHT30;53168;51.146;17.120;2024-03-17T00:28:34;5.99;70.55
66373;SHT30;53168;51.146;17.120;2024-03-17T00:31:07;5.95;70.61
66373;SHT30;53168;51.146;17.120;2024-03-17T00:33:43;5.89;70.84
66373;SHT30;53168;51.146;17.120;2024-03-17T00:36:15;5.83;70.90
66373;SHT30;53168;51.146;17.120;2024-03-17T00:38:47;5.75;71.07
66373;SHT30;53168;51.146;17.120;2024-03-17T00:41:53;5.71;71.16
66373;SHT30;53168;51.146;17.120;2024-03-17T00:44:38;5.65;71.42
66373;SHT30;53168;51.146;17.120;2024-03-17T00:47:14;5.61;71.41
66373;SHT30;53168;51.146;17.120;2024-03-17T00:49:46;5.54;71.48
66373;SHT30;53168;51.146;17.120;2024-03-17T00:52:19;5.50;71.65
66373;SHT30;53168;51.146;17.120;2024-03-17T00:54:49;5.47;71.69
66373;SHT30;53168;51.146;17.120;2024-03-17T00:57:21;5.45;71.86
66373;SHT30;53168;51.146;17.120;2024-03-17T00:59:52;5.44;71.90
66373;SHT30;53168;51.146;17.120;2024-03-17T01:02:23;5.44;71.97
66373;SHT30;53168;51.146;17.120;2024-03-17T01:04:54;5.42;72.06
66373;SHT30;53168;51.146;17.120;2024-03-17T01:07:25;5.39;72.11
66373;SHT30;53168;51.146;17.120;2024-03-17T01:09:56;5.38;72.20
66373;SHT30;53168;51.146;17.120;2024-03-17T01:12:26;5.37;72.20
66373;SHT30;53168;51.146;17.120;2024-03-17T01:14:59;5.35;72.23
66373;SHT30;53168;51.146;17.120;2024-03-17T01:17:33;5.32;72.26
66373;SHT30;53168;51.146;17.120;2024-03-17T01:20:07;5.27;72.27
66373;SHT30;53168;51.146;17.120;2024-03-17T01:22:44;5.23;72.35
66373;SHT30;53168;51.146;17.120;2024-03-17T01:25:15;5.19;72.49
66373;SHT30;53168;51.146;17.120;2024-03-17T01:27:48;5.16;72.52
66373;SHT30;53168;51.146;17.120;2024-03-17T01:30:20;5.11;72.57
66373;SHT30;53168;51.146;17.120;2024-03-17T01:32:51;5.07;72.66
66373;SHT30;53168;51.146;17.120;2024-03-17T01:35:24;5.03;72.69
66373;SHT30;53168;51.146;17.120;2024-03-17T01:37:56;4.98;72.74
66373;SHT30;53168;51.146;17.120;2024-03-17T01:40:27;4.95;72.80
66373;SHT30;53168;51.146;17.120;2024-03-17T01:42:59;4.91;72.95
66373;SHT30;53168;51.146;17.120;2024-03-17T01:45:33;4.88;72.93
66373;SHT30;53168;51.146;17.120;2024-03-17T01:48:11;4.86;73.09
66373;SHT30;53168;51.146;17.120;2024-03-17T01:50:49;4.83;73.02
66373;SHT30;53168;51.146;17.120;2024-03-17T01:53:26;4.80;73.10
66373;SHT30;53168;51.146;17.120;2024-03-17T01:56:00;4.80;73.25
66373;SHT30;53168;51.146;17.120;2024-03-17T01:58:37;4.81;73.37
66373;SHT30;53168;51.146;17.120;2024-03-17T02:01:09;4.80;73.31
66373;SHT30;53168;51.146;17.120;2024-03-17T02:03:46;4.78;73.35
66373;SHT30;53168;51.146;17.120;2024-03-17T02:06:17;4.74;73.24
66373;SHT30;53168;51.146;17.120;2024-03-17T02:08:49;4.68;73.30
66373;SHT30;53168;51.146;17.120;2024-03-17T02:11:27;4.62;73.37
66373;SHT30;53168;51.146;17.120;2024-03-17T02:13:59;4.57;73.51
66373;SHT30;53168;51.146;17.120;2024-03-17T02:16:36;4.55;73.67
66373;SHT30;53168;51.146;17.120;2024-03-17T02:19:08;4.56;73.72
66373;SHT30;53168;51.146;17.120;2024-03-17T02:21:39;4.55;73.75
66373;SHT30;53168;51.146;17.120;2024-03-17T02:24:10;4.56;73.80
66373;SHT30;53168;51.146;17.120;2024-03-17T02:26:41;4.54;73.77
66373;SHT30;53168;51.146;17.120;2024-03-17T02:29:14;4.51;73.75
66373;SHT30;53168;51.146;17.120;2024-03-17T02:31:48;4.46;73.88
66373;SHT30;53168;51.146;17.120;2024-03-17T02:34:20;4.44;73.86
66373;SHT30;53168;51.146;17.120;2024-03-17T02:36:52;4.41;73.92
66373;SHT30;53168;51.146;17.120;2024-03-17T02:39:23;4.38;74.01
66373;SHT30;53168;51.146;17.120;2024-03-17T02:42:09;4.38;73.94
66373;SHT30;53168;51.146;17.120;2024-03-17T02:44:40;4.35;73.84
66373;SHT30;53168;51.146;17.120;2024-03-17T02:47:11;4.32;73.78
66373;SHT30;53168;51.146;17.120;2024-03-17T02:49:48;4.30;73.59
66373;SHT30;53168;51.146;17.120;2024-03-17T02:52:19;4.29;73.46
66373;SHT30;53168;51.146;17.120;2024-03-17T02:54:50;4.29;73.40
66373;SHT30;53168;51.146;17.120;2024-03-17T02:57:28;4.28;73.48
66373;SHT30;53168;51.146;17.120;2024-03-17T03:00:01;4.26;73.51
66373;SHT30;53168;51.146;17.120;2024-03-17T03:02:33;4.24;73.61
66373;SHT30;53168;51.146;17.120;2024-03-17T03:05:07;4.19;73.64
66373;SHT30;53168;51.146;17.120;2024-03-17T03:08:16;4.14;73.72
66373;SHT30;53168;51.146;17.120;2024-03-17T03:10:50;4.09;73.79
66373;SHT30;53168;51.146;17.120;2024-03-17T03:13:24;4.02;73.94
66373;SHT30;53168;51.146;17.120;2024-03-17T03:15:59;3.98;74.10
66373;SHT30;53168;51.146;17.120;2024-03-17T03:18:33;3.94;74.11
66373;SHT30;53168;51.146;17.120;2024-03-17T03:21:07;3.91;74.26
66373;SHT30;53168;51.146;17.120;2024-03-17T03:23:42;3.89;74.36
66373;SHT30;53168;51.146;17.120;2024-03-17T03:26:19;3.88;74.46
66373;SHT30;53168;51.146;17.120;2024-03-17T03:28:54;3.88;74.45
66373;SHT30;53168;51.146;17.120;2024-03-17T03:31:29;3.83;74.33
66373;SHT30;53168;51.146;17.120;2024-03-17T03:34:04;3.79;74.30
66373;SHT30;53168;51.146;17.120;2024-03-17T03:36:42;3.75;74.51
66373;SHT30;53168;51.146;17.120;2024-03-17T03:39:18;3.74;74.55
66373;SHT30;53168;51.146;17.120;2024-03-17T03:41:52;3.72;74.59
66373;SHT30;53168;51.146;17.120;2024-03-17T03:44:29;3.71;74.61
66373;SHT30;53168;51.146;17.120;2024-03-17T03:47:04;3.67;74.59
66373;SHT30;53168;51.146;17.120;2024-03-17T03:49:38;3.63;74.64
66373;SHT30;53168;51.146;17.120;2024-03-17T03:52:14;3.60;74.77
66373;SHT30;53168;51.146;17.120;2024-03-17T03:54:53;3.56;74.76
66373;SHT30;53168;51.146;17.120;2024-03-17T03:57:28;3.53;74.83
66373;SHT30;53168;51.146;17.120;2024-03-17T04:00:06;3.52;74.90
66373;SHT30;53168;51.146;17.120;2024-03-17T04:02:44;3.50;75.01
66373;SHT30;53168;51.146;17.120;2024-03-17T04:05:20;3.49;75.11
66373;SHT30;53168;51.146;17.120;2024-03-17T04:07:57;3.47;75.03
66373;SHT30;53168;51.146;17.120;2024-03-17T04:10:33;3.43;75.14
66373;SHT30;53168;51.146;17.120;2024-03-17T04:13:07;3.43;75.36
66373;SHT30;53168;51.146;17.120;2024-03-17T04:15:44;3.43;75.29
66373;SHT30;53168;51.146;17.120;2024-03-17T04:18:22;3.42;75.31
66373;SHT30;53168;51.146;17.120;2024-03-17T04:20:58;3.44;75.34
66373;SHT30;53168;51.146;17.120;2024-03-17T04:23:36;3.45;75.20
66373;SHT30;53168;51.146;17.120;2024-03-17T04:26:10;3.44;75.11
66373;SHT30;53168;51.146;17.120;2024-03-17T04:28:45;3.42;75.04
66373;SHT30;53168;51.146;17.120;2024-03-17T04:31:20;3.38;75.05
66373;SHT30;53168;51.146;17.120;2024-03-17T04:33:55;3.35;75.10
66373;SHT30;53168;51.146;17.120;2024-03-17T04:36:29;3.32;75.11
66373;SHT30;53168;51.146;17.120;2024-03-17T04:39:03;3.29;75.21
66373;SHT30;53168;51.146;17.120;2024-03-17T04:41:40;3.26;75.23
66373;SHT30;53168;51.146;17.120;2024-03-17T04:44:16;3.25;75.30
66373;SHT30;53168;51.146;17.120;2024-03-17T04:46:53;3.23;75.30
66373;SHT30;53168;51.146;17.120;2024-03-17T04:49:28;3.22;75.32
66373;SHT30;53168;51.146;17.120;2024-03-17T04:52:03;3.21;75.36
66373;SHT30;53168;51.146;17.120;2024-03-17T04:54:41;3.19;75.34
66373;SHT30;53168;51.146;17.120;2024-03-17T04:57:15;3.20;75.40
66373;SHT30;53168;51.146;17.120;2024-03-17T04:59:52;3.19;75.38
66373;SHT30;53168;51.146;17.120;2024-03-17T05:02:26;3.19;75.42
66373;SHT30;53168;51.146;17.120;2024-03-17T05:05:04;3.20;75.51
66373;SHT30;53168;51.146;17.120;2024-03-17T05:07:41;3.22;75.50
66373;SHT30;53168;51.146;17.120;2024-03-17T05:10:15;3.25;75.45
66373;SHT30;53168;51.146;17.120;2024-03-17T05:12:53;3.30;75.40
66373;SHT30;53168;51.146;17.120;2024-03-17T05:15:27;3.34;75.40
66373;SHT30;53168;51.146;17.120;2024-03-17T05:18:02;3.37;75.26
66373;SHT30;53168;51.146;17.120;2024-03-17T05:20:38;3.38;75.29
66373;SHT30;53168;51.146;17.120;2024-03-17T05:23:13;3.38;75.20
66373;SHT30;53168;51.146;17.120;2024-03-17T05:25:54;3.37;75.21
66373;SHT30;53168;51.146;17.120;2024-03-17T05:28:30;3.35;75.21
66373;SHT30;53168;51.146;17.120;2024-03-17T05:31:05;3.38;75.25
66373;SHT30;53168;51.146;17.120;2024-03-17T05:33:40;3.41;75.18
66373;SHT30;53168;51.146;17.120;2024-03-17T05:36:15;3.43;75.20
66373;SHT30;53168;51.146;17.120;2024-03-17T05:38:53;3.45;75.20
66373;SHT30;53168;51.146;17.120;2024-03-17T05:41:28;3.49;75.09
66373;SHT30;53168;51.146;17.120;2024-03-17T05:44:06;3.52;75.00
66373;SHT30;53168;51.146;17.120;2024-03-17T05:46:42;3.57;74.93
66373;SHT30;53168;51.146;17.120;2024-03-17T05:49:17;3.62;74.90
66373;SHT30;53168;51.146;17.120;2024-03-17T05:51:57;3.65;74.82
66373;SHT30;53168;51.146;17.120;2024-03-17T05:54:34;3.68;74.79
66373;SHT30;53168;51.146;17.120;2024-03-17T05:57:09;3.69;74.72
66373;SHT30;53168;51.146;17.120;2024-03-17T05:59:45;3.73;74.59
66373;SHT30;53168;51.146;17.120;2024-03-17T06:02:20;3.78;74.50
66373;SHT30;53168;51.146;17.120;2024-03-17T06:04:55;3.81;74.46
66373;SHT30;53168;51.146;17.120;2024-03-17T06:07:34;3.85;74.37
66373;SHT30;53168;51.146;17.120;2024-03-17T06:10:09;3.91;74.19
66373;SHT30;53168;51.146;17.120;2024-03-17T06:12:44;3.96;74.10
66373;SHT30;53168;51.146;17.120;2024-03-17T06:15:18;4.00;74.06
66373;SHT30;53168;51.146;17.120;2024-03-17T06:17:58;4.06;73.89
66373;SHT30;53168;51.146;17.120;2024-03-17T06:20:34;4.14;73.62
66373;SHT30;53168;51.146;17.120;2024-03-17T06:23:13;4.20;73.35
66373;SHT30;53168;51.146;17.120;2024-03-17T06:25:50;4.29;73.15
66373;SHT30;53168;51.146;17.120;2024-03-17T06:28:25;4.36;72.88
66373;SHT30;53168;51.146;17.120;2024-03-17T06:31:01;4.44;72.68
66373;SHT30;53168;51.146;17.120;2024-03-17T06:33:38;4.52;72.55
66373;SHT30;53168;51.146;17.120;2024-03-17T06:36:14;4.60;72.42
66373;SHT30;53168;51.146;17.120;2024-03-17T06:38:49;4.68;72.17
66373;SHT30;53168;51.146;17.120;2024-03-17T06:41:30;4.75;71.81
66373;SHT30;53168;51.146;17.120;2024-03-17T06:44:05;4.80;71.55
66373;SHT30;53168;51.146;17.120;2024-03-17T06:46:41;4.88;71.56
66373;SHT30;53168;51.146;17.120;2024-03-17T06:49:18;4.96;71.41
66373;SHT30;53168;51.146;17.120;2024-03-17T06:51:53;5.03;70.93
66373;SHT30;53168;51.146;17.120;2024-03-17T06:54:30;5.10;70.69
66373;SHT30;53168;51.146;17.120;2024-03-17T06:57:05;5.14;70.26
66373;SHT30;53168;51.146;17.120;2024-03-17T06:59:39;5.20;70.22
66373;SHT30;53168;51.146;17.120;2024-03-17T07:02:16;5.28;70.10
66373;SHT30;53168;51.146;17.120;2024-03-17T07:04:51;5.37;69.75
66373;SHT30;53168;51.146;17.120;2024-03-17T07:07:30;5.41;69.29
66373;SHT30;53168;51.146;17.120;2024-03-17T07:10:08;5.48;69.30
66373;SHT30;53168;51.146;17.120;2024-03-17T07:12:43;5.55;69.02
66373;SHT30;53168;51.146;17.120;2024-03-17T07:15:19;5.64;69.22
66373;SHT30;53168;51.146;17.120;2024-03-17T07:17:53;5.72;68.60
66373;SHT30;53168;51.146;17.120;2024-03-17T07:24:00;6.07;68.42
66373;SHT30;53168;51.146;17.120;2024-03-17T07:26:49;6.11;68.01
66373;SHT30;53168;51.146;17.120;2024-03-17T07:29:45;6.21;67.92
66373;SHT30;53168;51.146;17.120;2024-03-17T07:32:19;6.24;67.31
66373;SHT30;53168;51.146;17.120;2024-03-17T07:34:59;6.22;67.23
66373;SHT30;53168;51.146;17.120;2024-03-17T07:37:36;6.24;66.98
66373;SHT30;53168;51.146;17.120;2024-03-17T07:40:13;6.34;67.21
66373;SHT30;53168;51.146;17.120;2024-03-17T07:42:48;6.49;66.71
66373;SHT30;53168;51.146;17.120;2024-03-17T07:45:23;6.54;66.89
66373;SHT30;53168;51.146;17.120;2024-03-17T07:47:59;6.61;66.68
66373;SHT30;53168;51.146;17.120;2024-03-17T07:50:34;6.70;66.66
66373;SHT30;53168;51.146;17.120;2024-03-17T07:53:09;6.70;65.94
66373;SHT30;53168;51.146;17.120;2024-03-17T07:57:49;6.67;66.19
66373;SHT30;53168;51.146;17.120;2024-03-17T08:00:19;6.71;65.72
66373;SHT30;53168;51.146;17.120;2024-03-17T08:02:51;6.77;65.11
66373;SHT30;53168;51.146;17.120;2024-03-17T08:05:22;6.78;64.94
66373;SHT30;53168;51.146;17.120;2024-03-17T08:07:53;6.68;64.66
66373;SHT30;53168;51.146;17.120;2024-03-17T08:10:24;6.58;65.01
66373;SHT30;53168;51.146;17.120;2024-03-17T08:12:56;6.49;65.05
66373;SHT30;53168;51.146;17.120;2024-03-17T08:15:32;6.44;65.01
66373;SHT30;53168;51.146;17.120;2024-03-17T08:18:02;6.40;65.01
66373;SHT30;53168;51.146;17.120;2024-03-17T08:20:38;6.54;65.11
66373;SHT30;53168;51.146;17.120;2024-03-17T08:23:10;6.70;64.06
66373;SHT30;53168;51.146;17.120;2024-03-17T08:25:41;6.72;63.19
66373;SHT30;53168;51.146;17.120;2024-03-17T08:28:21;6.81;63.15
66373;SHT30;53168;51.146;17.120;2024-03-17T08:30:54;6.93;62.89
66373;SHT30;53168;51.146;17.120;2024-03-17T08:33:27;6.97;62.57
66373;SHT30;53168;51.146;17.120;2024-03-17T08:36:03;6.95;62.38
66373;SHT30;53168;51.146;17.120;2024-03-17T08:38:40;7.03;62.57
66373;SHT30;53168;51.146;17.120;2024-03-17T08:41:11;7.13;62.05
66373;SHT30;53168;51.146;17.120;2024-03-17T08:50:43;7.11;60.89
66373;SHT30;53168;51.146;17.120;2024-03-17T08:53:55;7.18;61.25
66373;SHT30;53168;51.146;17.120;2024-03-17T08:56:36;7.31;60.74
66373;SHT30;53168;51.146;17.120;2024-03-17T08:59:07;7.14;59.73
66373;SHT30;53168;51.146;17.120;2024-03-17T09:01:43;6.99;60.17
66373;SHT30;53168;51.146;17.120;2024-03-17T09:04:16;7.00;59.62
66373;SHT30;53168;51.146;17.120;2024-03-17T09:06:47;7.16;59.95
66373;SHT30;53168;51.146;17.120;2024-03-17T09:09:19;7.50;60.19
66373;SHT30;53168;51.146;17.120;2024-03-17T09:11:50;7.73;59.34
66373;SHT30;53168;51.146;17.120;2024-03-17T09:14:37;7.61;58.32
66373;SHT30;53168;51.146;17.120;2024-03-17T09:17:15;7.41;58.84
66373;SHT30;53168;51.146;17.120;2024-03-17T09:19:54;7.33;59.16
66373;SHT30;53168;51.146;17.120;2024-03-17T09:22:31;7.37;59.07
66373;SHT30;53168;51.146;17.120;2024-03-17T09:25:02;7.47;59.32
66373;SHT30;53168;51.146;17.120;2024-03-17T09:27:35;7.57;59.12
66373;SHT30;53168;51.146;17.120;2024-03-17T09:37:14;7.33;59.03
66373;SHT30;53168;51.146;17.120;2024-03-17T09:39:50;7.18;58.87
66373;SHT30;53168;51.146;17.120;2024-03-17T09:42:28;7.33;58.73
66373;SHT30;53168;51.146;17.120;2024-03-17T09:45:04;7.54;57.96
66373;SHT30;53168;51.146;17.120;2024-03-17T09:47:41;7.64;57.81
66373;SHT30;53168;51.146;17.120;2024-03-17T10:07:39;8.98;54.95
66373;SHT30;53168;51.146;17.120;2024-03-17T10:10:15;9.12;54.10
66373;SHT30;53168;51.146;17.120;2024-03-17T10:12:51;9.16;53.70
66373;SHT30;53168;51.146;17.120;2024-03-17T10:15:23;9.11;52.95
66373;SHT30;53168;51.146;17.120;2024-03-17T10:17:56;9.18;53.39
66373;SHT30;53168;51.146;17.120;2024-03-17T10:20:28;9.24;52.62
66373;SHT30;53168;51.146;17.120;2024-03-17T10:23:01;9.19;52.54
66373;SHT30;53168;51.146;17.120;2024-03-17T10:25:38;9.34;53.38
66373;SHT30;53168;51.146;17.120;2024-03-17T10:28:14;9.36;53.11
66373;SHT30;53168;51.146;17.120;2024-03-17T10:31:00;9.14;53.29
66373;SHT30;53168;51.146;17.120;2024-03-17T10:33:34;8.88;52.92
66373;SHT30;53168;51.146;17.120;2024-03-17T10:36:19;8.65;53.53
66373;SHT30;53168;51.146;17.120;2024-03-17T10:38:53;8.44;53.80
66373;SHT30;53168;51.146;17.120;2024-03-17T10:41:27;8.20;53.72
66373;SHT30;53168;51.146;17.120;2024-03-17T10:44:04;8.08;53.85
66373;SHT30;53168;51.146;17.120;2024-03-17T10:46:36;8.27;54.07
66373;SHT30;53168;51.146;17.120;2024-03-17T10:49:21;8.56;53.33
66373;SHT30;53168;51.146;17.120;2024-03-17T10:52:03;8.77;52.86
66373;SHT30;53168;51.146;17.120;2024-03-17T10:54:39;9.00;52.45
66373;SHT30;53168;51.146;17.120;2024-03-17T10:57:27;9.20;52.07
66373;SHT30;53168;51.146;17.120;2024-03-17T11:00:10;9.39;51.36
66373;SHT30;53168;51.146;17.120;2024-03-17T11:02:50;9.53;51.28
66373;SHT30;53168;51.146;17.120;2024-03-17T11:05:25;9.53;51.02
66373;SHT30;53168;51.146;17.120;2024-03-17T11:08:01;9.49;50.02
66373;SHT30;53168;51.146;17.120;2024-03-17T11:10:38;9.51;49.61
66373;SHT30;53168;51.146;17.120;2024-03-17T11:13:24;9.45;49.52
66373;SHT30;53168;51.146;17.120;2024-03-17T11:15:58;9.59;49.66
66373;SHT30;53168;51.146;17.120;2024-03-17T11:18:38;9.66;49.73
66373;SHT30;53168;51.146;17.120;2024-03-17T11:21:25;9.69;49.29
66373;SHT30;53168;51.146;17.120;2024-03-17T11:24:05;9.86;49.70
66373;SHT30;53168;51.146;17.120;2024-03-17T11:26:52;9.98;49.93
66373;SHT30;53168;51.146;17.120;2024-03-17T11:29:29;10.20;50.34
66373;SHT30;53168;51.146;17.120;2024-03-17T11:32:25;10.27;49.90
66373;SHT30;53168;51.146;17.120;2024-03-17T11:35:13;10.24;49.59
66373;SHT30;53168;51.146;17.120;2024-03-17T11:37:44;10.48;49.31
66373;SHT30;53168;51.146;17.120;2024-03-17T11:40:25;10.64;48.78
66373;SHT30;53168;51.146;17.120;2024-03-17T11:43:05;11.20;48.34
66373;SHT30;53168;51.146;17.120;2024-03-17T11:45:42;11.83;46.93
66373;SHT30;53168;51.146;17.120;2024-03-17T11:48:15;12.33;46.45
66373;SHT30;53168;51.146;17.120;2024-03-17T11:50:49;12.80;46.05
66373;SHT30;53168;51.146;17.120;2024-03-17T11:53:23;13.16;46.10
66373;SHT30;53168;51.146;17.120;2024-03-17T11:56:00;13.29;45.18
66373;SHT30;53168;51.146;17.120;2024-03-17T11:58:41;13.18;44.56
66373;SHT30;53168;51.146;17.120;2024-03-17T12:01:13;12.82;44.83
66373;SHT30;53168;51.146;17.120;2024-03-17T12:03:48;12.16;45.31
66373;SHT30;53168;51.146;17.120;2024-03-17T12:06:24;11.54;45.50
66373;SHT30;53168;51.146;17.120;2024-03-17T12:09:09;11.39;45.86
66373;SHT30;53168;51.146;17.120;2024-03-17T12:11:59;11.27;45.80
66373;SHT30;53168;51.146;17.120;2024-03-17T12:14:34;10.91;46.07
66373;SHT30;53168;51.146;17.120;2024-03-17T12:17:09;10.43;45.72
66373;SHT30;53168;51.146;17.120;2024-03-17T12:19:45;10.10;45.99
66373;SHT30;53168;51.146;17.120;2024-03-17T12:39:49;14.71;41.39
66373;SHT30;53168;51.146;17.120;2024-03-17T12:42:25;14.45;41.68
66373;SHT30;53168;51.146;17.120;2024-03-17T12:44:58;13.39;42.52
66373;SHT30;53168;51.146;17.120;2024-03-17T12:47:31;12.40;43.27
66373;SHT30;53168;51.146;17.120;2024-03-17T12:50:12;11.83;44.36
66373;SHT30;53168;51.146;17.120;2024-03-17T12:52:53;11.63;44.38
66373;SHT30;53168;51.146;17.120;2024-03-17T12:55:25;11.56;43.84
66373;SHT30;53168;51.146;17.120;2024-03-17T12:58:15;12.10;43.34
66373;SHT30;53168;51.146;17.120;2024-03-17T13:01:05;12.73;42.66
66373;SHT30;53168;51.146;17.120;2024-03-17T13:03:38;13.26;42.08
66373;SHT30;53168;51.146;17.120;2024-03-17T13:06:10;13.72;41.87
66373;SHT30;53168;51.146;17.120;2024-03-17T13:08:53;14.23;40.44
66373;SHT30;53168;51.146;17.120;2024-03-17T13:11:25;14.21;40.39
66373;SHT30;53168;51.146;17.120;2024-03-17T13:14:00;13.59;42.22
66373;SHT30;53168;51.146;17.120;2024-03-17T13:16:33;13.15;43.38
66373;SHT30;53168;51.146;17.120;2024-03-17T13:19:17;13.07;43.39
66373;SHT30;53168;51.146;17.120;2024-03-17T13:22:08;12.32;42.60
66373;SHT30;53168;51.146;17.120;2024-03-17T13:24:40;12.41;42.69
66373;SHT30;53168;51.146;17.120;2024-03-17T13:27:11;13.01;41.72
66373;SHT30;53168;51.146;17.120;2024-03-17T13:29:43;13.11;41.22
66373;SHT30;53168;51.146;17.120;2024-03-17T13:32:18;13.51;40.31
66373;SHT30;53168;51.146;17.120;2024-03-17T13:34:52;14.04;39.96
66373;SHT30;53168;51.146;17.120;2024-03-17T13:37:24;14.52;39.29
66373;SHT30;53168;51.146;17.120;2024-03-17T13:39:55;14.87;38.79
66373;SHT30;53168;51.146;17.120;2024-03-17T13:42:26;15.06;37.94
66373;SHT30;53168;51.146;17.120;2024-03-17T13:44:57;15.01;36.82
66373;SHT30;53168;51.146;17.120;2024-03-17T13:47:29;15.13;37.69
66373;SHT30;53168;51.146;17.120;2024-03-17T13:50:00;15.50;37.17
66373;SHT30;53168;51.146;17.120;2024-03-17T13:52:35;15.59;36.13
66373;SHT30;53168;51.146;17.120;2024-03-17T13:55:14;15.22;36.60
66373;SHT30;53168;51.146;17.120;2024-03-17T13:57:49;14.35;37.68
66373;SHT30;53168;51.146;17.120;2024-03-17T14:00:24;14.59;37.53
66373;SHT30;53168;51.146;17.120;2024-03-17T14:02:56;15.05;37.34
66373;SHT30;53168;51.146;17.120;2024-03-17T14:05:27;15.59;37.09
66373;SHT30;53168;51.146;17.120;2024-03-17T14:07:58;15.43;36.02
66373;SHT30;53168;51.146;17.120;2024-03-17T14:10:29;14.84;36.50
66373;SHT30;53168;51.146;17.120;2024-03-17T14:13:00;15.01;36.94
66373;SHT30;53168;51.146;17.120;2024-03-17T14:15:31;14.80;36.62
66373;SHT30;53168;51.146;17.120;2024-03-17T14:18:02;15.11;36.38
66373;SHT30;53168;51.146;17.120;2024-03-17T14:20:35;15.43;35.82
66373;SHT30;53168;51.146;17.120;2024-03-17T14:23:09;15.74;35.22
66373;SHT30;53168;51.146;17.120;2024-03-17T14:25:40;15.90;35.13
66373;SHT30;53168;51.146;17.120;2024-03-17T14:28:10;15.40;35.16
66373;SHT30;53168;51.146;17.120;2024-03-17T14:30:41;15.11;35.70
66373;SHT30;53168;51.146;17.120;2024-03-17T14:33:12;14.40;36.28
66373;SHT30;53168;51.146;17.120;2024-03-17T14:35:43;13.32;37.13
66373;SHT30;53168;51.146;17.120;2024-03-17T14:38:14;12.32;37.90
66373;SHT30;53168;51.146;17.120;2024-03-17T14:40:45;11.55;38.88
66373;SHT30;53168;51.146;17.120;2024-03-17T14:43:17;11.63;38.74
66373;SHT30;53168;51.146;17.120;2024-03-17T14:45:48;12.68;37.73
66373;SHT30;53168;51.146;17.120;2024-03-17T14:48:20;13.01;37.39
66373;SHT30;53168;51.146;17.120;2024-03-17T14:50:52;12.65;37.71
66373;SHT30;53168;51.146;17.120;2024-03-17T14:53:23;13.37;36.48
66373;SHT30;53168;51.146;17.120;2024-03-17T14:55:55;13.95;35.42
66373;SHT30;53168;51.146;17.120;2024-03-17T14:58:26;13.46;35.69
66373;SHT30;53168;51.146;17.120;2024-03-17T15:00:58;12.40;36.81
66373;SHT30;53168;51.146;17.120;2024-03-17T15:03:29;11.57;37.89
66373;SHT30;53168;51.146;17.120;2024-03-17T15:05:59;11.15;38.64
66373;SHT30;53168;51.146;17.120;2024-03-17T15:10:52;12.07;37.98
66373;SHT30;53168;51.146;17.120;2024-03-17T15:13:27;12.68;37.65
66373;SHT30;53168;51.146;17.120;2024-03-17T15:16:02;13.26;37.79
66373;SHT30;53168;51.146;17.120;2024-03-17T15:18:37;13.13;37.16
66373;SHT30;53168;51.146;17.120;2024-03-17T15:21:14;12.20;38.10
66373;SHT30;53168;51.146;17.120;2024-03-17T15:23:50;11.64;38.98
66373;SHT30;53168;51.146;17.120;2024-03-17T15:26:25;11.53;38.95
66373;SHT30;53168;51.146;17.120;2024-03-17T15:28:59;11.07;39.44
66373;SHT30;53168;51.146;17.120;2024-03-17T15:31:37;10.89;39.67
66373;SHT30;53168;51.146;17.120;2024-03-17T15:34:12;10.50;40.05
66373;SHT30;53168;51.146;17.120;2024-03-17T15:36:47;10.31;40.25
66373;SHT30;53168;51.146;17.120;2024-03-17T15:39:22;9.95;41.01
66373;SHT30;53168;51.146;17.120;2024-03-17T15:41:56;9.71;41.62
66373;SHT30;53168;51.146;17.120;2024-03-17T15:44:31;9.53;42.04
66373;SHT30;53168;51.146;17.120;2024-03-17T15:47:07;9.46;42.21
66373;SHT30;53168;51.146;17.120;2024-03-17T15:49:42;9.65;42.43
66373;SHT30;53168;51.146;17.120;2024-03-17T15:52:18;9.68;42.59
66373;SHT30;53168;51.146;17.120;2024-03-17T15:54:52;9.39;43.32
66373;SHT30;53168;51.146;17.120;2024-03-17T15:57:27;9.17;43.72
66373;SHT30;53168;51.146;17.120;2024-03-17T16:00:02;9.24;43.99
66373;SHT30;53168;51.146;17.120;2024-03-17T16:03:24;9.22;44.48
66373;SHT30;53168;51.146;17.120;2024-03-17T16:06:02;9.78;44.01
66373;SHT30;53168;51.146;17.120;2024-03-17T16:08:42;9.79;43.95
66373;SHT30;53168;51.146;17.120;2024-03-17T16:11:16;9.41;44.52
66373;SHT30;53168;51.146;17.120;2024-03-17T16:13:57;9.26;44.81
66373;SHT30;53168;51.146;17.120;2024-03-17T16:16:30;8.95;45.28
66373;SHT30;53168;51.146;17.120;2024-03-17T16:19:01;8.80;45.60
66373;SHT30;53168;51.146;17.120;2024-03-17T16:21:36;8.60;46.02
66373;SHT30;53168;51.146;17.120;2024-03-17T16:24:14;8.35;46.56
66373;SHT30;53168;51.146;17.120;2024-03-17T16:26:45;8.15;47.21
66373;SHT30;53168;51.146;17.120;2024-03-17T16:29:16;7.99;47.42
66373;SHT30;53168;51.146;17.120;2024-03-17T16:31:48;7.83;48.01
66373;SHT30;53168;51.146;17.120;2024-03-17T16:34:22;7.68;48.36
66373;SHT30;53168;51.146;17.120;2024-03-17T16:37:09;7.55;48.49
66373;SHT30;53168;51.146;17.120;2024-03-17T16:39:42;7.45;48.91
66373;SHT30;53168;51.146;17.120;2024-03-17T16:42:13;7.35;49.40
66373;SHT30;53168;51.146;17.120;2024-03-17T16:44:49;7.26;49.89
66373;SHT30;53168;51.146;17.120;2024-03-17T16:47:34;7.17;50.17
66373;SHT30;53168;51.146;17.120;2024-03-17T16:50:15;7.08;50.29
66373;SHT30;53168;51.146;17.120;2024-03-17T16:52:51;6.99;50.51
66373;SHT30;53168;51.146;17.120;2024-03-17T16:55:23;6.92;51.55
66373;SHT30;53168;51.146;17.120;2024-03-17T17:00:01;6.79;51.76
66373;SHT30;53168;51.146;17.120;2024-03-17T17:02:45;6.73;52.13
66373;SHT30;53168;51.146;17.120;2024-03-17T17:05:24;6.68;52.19
66373;SHT30;53168;51.146;17.120;2024-03-17T17:19:37;6.43;53.19
66373;SHT30;53168;51.146;17.120;2024-03-17T17:22:24;6.39;53.68
66373;SHT30;53168;51.146;17.120;2024-03-17T17:24:55;6.37;53.37
66373;SHT30;53168;51.146;17.120;2024-03-17T17:27:27;6.34;53.45
66373;SHT30;53168;51.146;17.120;2024-03-17T17:36:20;6.27;53.66
66373;SHT30;53168;51.146;17.120;2024-03-17T17:38:56;6.25;53.94